Time;durP1;ratioP1;P1;durP2;ratioP2;P2;SDS_P1;SDS_P2;PMS_P1;PMS_P2;Temp;Humidity;BMP_temperature;BMP_pressure;BME280_temperature;BME280_humidity;BME280_pressure;Samples;Min_cycle;Max_cycle;Signal;HPM_P1;HPM_P2
2022/11/16 00:01:32;;;;;;;13.15;7.63;;;11.30;99.90;;;;;;4948507;29;20031;-77
2022/11/16 00:04:00;;;;;;;10.88;8.13;;;11.30;99.90;;;;;;4948519;29;20051;-77
2022/11/16 00:06:27;;;;;;;12.10;9.70;;;11.30;99.90;;;;;;4948216;29;20027;-77
2022/11/16 00:11:52;;;;;;;10.48;8.35;;;11.30;99.90;;;;;;4948185;29;20083;-78
2022/11/16 00:14:19;;;;;;;12.05;8.07;;;11.30;99.90;;;;;;4952362;29;20031;-78
2022/11/16 00:16:45;;;;;;;10.85;9.68;;;11.30;99.90;;;;;;4952417;29;20039;-77
2022/11/16 00:19:12;;;;;;;17.25;11.85;;;11.30;99.90;;;;;;4952321;29;20460;-77
2022/11/16 00:21:38;;;;;;;15.30;12.63;;;11.30;99.90;;;;;;4951819;29;20039;-78
2022/11/16 00:24:04;;;;;;;12.75;11.52;;;11.40;99.90;;;;;;4952179;29;20036;-77
2022/11/16 00:26:30;;;;;;;12.45;9.65;;;11.30;99.90;;;;;;4935000;29;20067;-77
2022/11/16 00:28:56;;;;;;;9.85;8.73;;;11.30;99.90;;;;;;4934882;29;20035;-77
2022/11/16 00:31:23;;;;;;;11.02;8.88;;;11.30;99.90;;;;;;4952303;29;20027;-77
2022/11/16 00:33:50;;;;;;;13.70;12.02;;;11.30;99.90;;;;;;4951949;29;20100;-77
2022/11/16 00:36:16;;;;;;;13.50;12.18;;;11.30;99.90;;;;;;4951794;29;20056;-77
2022/11/16 00:38:42;;;;;;;18.75;13.43;;;11.30;99.90;;;;;;4951947;29;20103;-77
2022/11/16 00:41:11;;;;;;;11.93;10.68;;;11.30;99.90;;;;;;4934883;29;20039;-77
2022/11/16 00:43:37;;;;;;;24.17;10.43;;;11.30;99.90;;;;;;4934700;29;20031;-77
2022/11/16 00:46:04;;;;;;;12.73;10.60;;;11.30;99.90;;;;;;4934768;29;20020;-77
2022/11/16 00:48:30;;;;;;;17.48;12.68;;;11.30;99.90;;;;;;4951749;29;20037;-77
2022/11/16 00:50:56;;;;;;;12.82;11.50;;;11.30;99.90;;;;;;4934343;29;20031;-77
2022/11/16 00:53:22;;;;;;;12.23;11.02;;;11.30;99.90;;;;;;4903395;29;20035;-77
2022/11/16 00:55:48;;;;;;;8.88;8.02;;;11.30;99.90;;;;;;4934530;29;20036;-77
2022/11/16 00:58:16;;;;;;;10.40;9.50;;;11.30;99.90;;;;;;4934326;29;20054;-77
2022/11/16 01:00:45;;;;;;;10.95;7.85;;;11.30;99.90;;;;;;4934539;29;20023;-77
2022/11/16 01:03:10;;;;;;;10.73;8.93;;;11.30;99.90;;;;;;4934373;29;20529;-78
2022/11/16 01:05:37;;;;;;;10.60;9.52;;;11.30;99.90;;;;;;4934359;29;20031;-77
2022/11/16 01:08:03;;;;;;;12.82;9.18;;;11.30;99.90;;;;;;4934298;29;20027;-77
2022/11/16 01:10:29;;;;;;;10.10;8.63;;;11.30;99.90;;;;;;4934314;29;20024;-77
2022/11/16 01:12:55;;;;;;;11.70;9.57;;;11.30;99.90;;;;;;4918497;29;20074;-78
2022/11/16 01:15:22;;;;;;;9.90;8.90;;;11.30;99.90;;;;;;4918458;29;20082;-77
2022/11/16 01:17:49;;;;;;;10.93;9.55;;;11.30;99.90;;;;;;4934254;29;20024;-77
2022/11/16 01:20:18;;;;;;;9.95;8.85;;;11.30;99.90;;;;;;4950741;29;20070;-77
2022/11/16 01:22:44;;;;;;;13.38;8.55;;;11.40;99.90;;;;;;4951374;29;20039;-77
2022/11/16 01:25:11;;;;;;;10.27;8.55;;;11.30;99.90;;;;;;4933135;29;20035;-77
2022/11/16 01:27:38;;;;;;;10.07;9.13;;;11.30;99.90;;;;;;4934148;29;20091;-77
2022/11/16 01:30:08;;;;;;;8.63;7.43;;;11.30;99.90;;;;;;4934226;29;20031;-77
2022/11/16 01:32:37;;;;;;;9.55;8.65;;;11.30;99.90;;;;;;4934189;29;20287;-77
2022/11/16 01:35:05;;;;;;;8.77;7.93;;;11.30;99.90;;;;;;4933522;29;20026;-77
2022/11/16 01:37:33;;;;;;;16.77;9.20;;;11.30;99.90;;;;;;4933693;29;20028;-77
2022/11/16 01:39:58;;;;;;;9.90;8.23;;;11.30;99.90;;;;;;4933706;29;20056;-77
2022/11/16 01:42:28;;;;;;;12.35;8.93;;;11.30;99.90;;;;;;4933743;29;20505;-77
2022/11/16 01:45:15;;;;;;;10.43;9.50;;;11.30;99.90;;;;;;4933782;29;20024;-77
2022/11/16 01:47:41;;;;;;;9.77;8.80;;;11.30;99.90;;;;;;4933749;29;20469;-77
2022/11/16 01:50:11;;;;;;;12.30;11.02;;;11.30;99.90;;;;;;4933507;29;20477;-78
2022/11/16 01:52:50;;;;;;;12.32;9.07;;;11.30;99.90;;;;;;4933312;29;20034;-77
2022/11/16 01:55:16;;;;;;;10.10;9.00;;;11.30;99.90;;;;;;4933526;29;20030;-77
2022/11/16 01:57:54;;;;;;;10.05;9.10;;;11.40;99.90;;;;;;4919171;29;20034;-77
2022/11/16 02:00:20;;;;;;;19.98;10.80;;;11.30;99.90;;;;;;4933725;29;20067;-77
2022/11/16 02:02:56;;;;;;;10.98;8.27;;;11.40;99.90;;;;;;4934948;29;20030;-77
2022/11/16 02:06:16;;;;;;;15.27;10.00;;;11.30;99.90;;;;;;4950158;29;20039;-77
2022/11/16 02:12:11;;;;;;;10.25;9.35;;;11.40;99.90;;;;;;4933250;29;20063;-77
2022/11/16 02:14:47;;;;;;;13.95;10.40;;;11.30;99.90;;;;;;4933180;29;20028;-77
2022/11/16 02:17:25;;;;;;;11.38;9.50;;;11.40;99.90;;;;;;4932816;29;20039;-77
2022/11/16 02:20:06;;;;;;;13.68;12.32;;;11.40;99.90;;;;;;4932997;29;20036;-77
2022/11/16 02:23:06;;;;;;;12.48;11.25;;;11.40;99.90;;;;;;4917173;29;20108;-77
2022/11/16 02:25:56;;;;;;;10.23;8.77;;;11.40;99.90;;;;;;4933056;29;20042;-77
2022/11/16 02:28:25;;;;;;;12.05;9.82;;;11.30;99.90;;;;;;4933069;29;20031;-77
2022/11/16 02:30:55;;;;;;;9.80;8.80;;;11.40;99.90;;;;;;4916886;29;20024;-77
2022/11/16 02:33:27;;;;;;;14.70;8.45;;;11.40;99.90;;;;;;4933074;29;20106;-77
2022/11/16 02:35:57;;;;;;;8.57;7.70;;;11.40;99.90;;;;;;4949855;29;20039;-77
2022/11/16 02:38:28;;;;;;;11.18;7.28;;;11.40;99.90;;;;;;4949751;29;20035;-77
2022/11/16 02:41:04;;;;;;;8.18;6.93;;;11.40;99.90;;;;;;4932726;29;20034;-77
2022/11/16 02:43:37;;;;;;;8.45;7.65;;;11.40;99.90;;;;;;4948554;29;20031;-77
2022/11/16 02:46:09;;;;;;;5.25;4.43;;;11.40;99.90;;;;;;4944313;29;20034;-78
2022/11/16 02:48:40;;;;;;;6.50;5.50;;;11.40;99.90;;;;;;4932658;29;20044;-77
2022/11/16 02:51:07;;;;;;;5.28;4.78;;;11.50;99.90;;;;;;4949629;29;20043;-77
2022/11/16 02:53:39;;;;;;;7.28;5.72;;;11.50;99.90;;;;;;4932622;29;20020;-77
2022/11/16 02:56:12;;;;;;;6.32;5.15;;;11.50;99.90;;;;;;4932390;29;20118;-77
2022/11/16 02:58:38;;;;;;;3.97;3.63;;;11.50;99.90;;;;;;4932399;29;20020;-77
2022/11/16 03:01:11;;;;;;;5.45;4.55;;;11.50;99.90;;;;;;4932081;29;20050;-77
2022/11/16 03:03:53;;;;;;;5.38;4.70;;;11.50;99.90;;;;;;4932469;29;20034;-77
2022/11/16 03:06:27;;;;;;;7.53;5.07;;;11.50;99.90;;;;;;4932415;29;20057;-77
2022/11/16 03:09:03;;;;;;;5.30;4.35;;;11.50;99.90;;;;;;4932310;29;20043;-77
2022/11/16 03:14:21;;;;;;;6.60;5.10;;;11.50;99.90;;;;;;4932199;29;20035;-77
2022/11/16 03:16:49;;;;;;;;;;;11.50;99.90;;;;;;4949070;29;20040;-77
2022/11/16 03:19:22;;;;;;;6.00;5.45;;;11.40;99.90;;;;;;4931814;29;20009;-77
2022/11/16 03:21:54;;;;;;;4.82;4.20;;;11.50;99.90;;;;;;4916318;29;20027;-77
2022/11/16 03:24:21;;;;;;;6.03;4.68;;;11.40;99.90;;;;;;4948765;29;20035;-78
2022/11/16 03:27:08;;;;;;;7.68;5.68;;;11.40;99.90;;;;;;4948941;29;20028;-77
2022/11/16 03:29:52;;;;;;;6.70;4.90;;;11.40;99.90;;;;;;4931816;29;20162;-77
2022/11/16 03:32:32;;;;;;;5.38;4.88;;;11.40;99.90;;;;;;4931435;29;20038;-76
2022/11/16 03:35:06;;;;;;;6.27;4.37;;;11.40;99.90;;;;;;4931902;29;20039;-77
2022/11/16 03:37:34;;;;;;;8.80;4.63;;;11.40;99.90;;;;;;4912802;29;20060;-77
2022/11/16 03:40:01;;;;;;;10.77;7.50;;;11.30;99.90;;;;;;4912512;29;20084;-77
2022/11/16 03:42:31;;;;;;;15.43;5.88;;;11.30;99.90;;;;;;4897572;29;20084;-78
2022/11/16 03:44:57;;;;;;;5.32;4.68;;;11.30;99.90;;;;;;4931386;29;20059;-77
2022/11/16 03:47:24;;;;;;;6.63;6.03;;;11.20;99.90;;;;;;4930991;29;20031;-77
2022/11/16 03:49:50;;;;;;;6.13;5.53;;;11.20;99.90;;;;;;4931670;29;20042;-77
2022/11/16 03:52:18;;;;;;;6.93;6.25;;;11.20;99.90;;;;;;4915911;29;20039;-77
2022/11/16 03:54:45;;;;;;;5.57;4.93;;;11.20;99.90;;;;;;4931593;29;20031;-77
2022/11/16 03:57:14;;;;;;;10.02;7.40;;;11.20;99.90;;;;;;4915466;29;20024;-77
2022/11/16 03:59:44;;;;;;;7.68;5.82;;;11.20;99.90;;;;;;4931230;29;20437;-77
2022/11/16 04:02:10;;;;;;;6.70;6.10;;;11.20;99.90;;;;;;4931478;29;20091;-77
2022/11/16 04:24:12;;;;;;;5.97;4.50;;;10.80;99.90;;;;;;4931248;29;20046;-77
2022/11/16 04:29:27;;;;;;;9.15;6.40;;;10.80;99.90;;;;;;4930789;29;20047;-77
2022/11/16 04:40:09;;;;;;;15.02;9.05;;;10.70;99.90;;;;;;4930759;29;20040;-78
2022/11/16 04:42:35;;;;;;;8.07;7.28;;;10.60;99.90;;;;;;4915187;29;20036;-77
2022/11/16 04:47:51;;;;;;;8.63;6.30;;;10.60;99.90;;;;;;4930852;29;20100;-77
2022/11/16 04:50:20;;;;;;;8.10;5.93;;;10.50;99.90;;;;;;4915390;29;20102;-77
2022/11/16 04:52:47;;;;;;;11.80;5.75;;;10.50;99.90;;;;;;4930786;29;20044;-77
2022/11/16 04:55:14;;;;;;;4.43;3.55;;;10.50;99.90;;;;;;4931029;29;20028;-77
2022/11/16 04:57:43;;;;;;;4.82;3.67;;;10.40;99.90;;;;;;4930554;29;20032;-78
2022/11/16 05:00:12;;;;;;;2.85;2.53;;;10.40;99.90;;;;;;4932970;29;20023;-77
2022/11/16 05:02:39;;;;;;;9.05;4.50;;;10.20;99.90;;;;;;4918636;29;20493;-77
2022/11/16 05:05:05;;;;;;;3.42;3.05;;;10.20;99.90;;;;;;4934346;29;20035;-77
2022/11/16 05:07:32;;;;;;;2.55;2.33;;;10.10;99.90;;;;;;4934313;29;20099;-77
2022/11/16 05:10:05;;;;;;;3.63;2.80;;;10.00;99.90;;;;;;4934448;29;20027;-78
2022/11/16 05:12:32;;;;;;;5.85;2.13;;;9.90;99.90;;;;;;4934362;29;20545;-77
2022/11/16 05:15:00;;;;;;;6.10;3.83;;;9.90;99.90;;;;;;4933761;29;20024;-77
2022/11/16 05:17:29;;;;;;;4.03;2.83;;;9.80;99.90;;;;;;4934383;29;20114;-77
2022/11/16 05:22:54;;;;;;;11.07;2.15;;;9.70;99.90;;;;;;4934098;29;20040;-78
2022/11/16 05:25:21;;;;;;;8.93;2.47;;;9.60;99.90;;;;;;4933855;29;20043;-77
2022/11/16 05:27:47;;;;;;;3.85;3.08;;;9.50;99.90;;;;;;4932731;29;20032;-77
2022/11/16 05:30:13;;;;;;;2.50;2.22;;;9.40;99.90;;;;;;4933692;29;20556;-77
2022/11/16 05:32:38;;;;;;;5.35;3.10;;;9.40;99.90;;;;;;4918223;29;20032;-77
2022/11/16 05:35:07;;;;;;;3.85;2.47;;;9.40;99.90;;;;;;4918488;29;20512;-77
2022/11/16 05:37:33;;;;;;;2.38;2.28;;;9.30;99.90;;;;;;4918065;29;20067;-77
2022/11/16 05:40:00;;;;;;;3.33;2.70;;;9.30;99.90;;;;;;4933487;29;20048;-77
2022/11/16 05:42:37;;;;;;;20.67;4.18;;;9.20;99.90;;;;;;4933532;29;20027;-77
2022/11/16 05:45:03;;;;;;;6.18;3.45;;;9.20;99.90;;;;;;4934164;29;20035;-78
2022/11/16 05:47:29;;;;;;;4.22;3.92;;;9.20;99.90;;;;;;4920159;29;20394;-77
2022/11/16 05:49:55;;;;;;;5.25;4.15;;;9.20;99.90;;;;;;4941279;29;20044;-77
2022/11/16 05:52:22;;;;;;;3.95;3.58;;;9.10;99.90;;;;;;4918339;29;20042;-78
2022/11/16 05:54:47;;;;;;;11.70;5.13;;;9.10;99.90;;;;;;4919558;29;20032;-77
2022/11/16 05:57:14;;;;;;;4.72;4.20;;;9.00;99.90;;;;;;4918790;29;20095;-77
2022/11/16 05:59:40;;;;;;;6.00;3.63;;;9.00;99.90;;;;;;4934215;29;20378;-78
2022/11/16 06:02:06;;;;;;;5.15;4.55;;;9.00;99.90;;;;;;4934276;29;20027;-77
2022/11/16 06:04:34;;;;;;;9.27;5.85;;;9.00;99.90;;;;;;4934324;29;20028;-77
2022/11/16 06:07:00;;;;;;;11.02;5.90;;;8.90;99.90;;;;;;4933423;29;20060;-78
2022/11/16 06:09:29;;;;;;;9.35;6.05;;;8.90;99.90;;;;;;4917550;29;20039;-77
2022/11/16 06:12:00;;;;;;;10.95;4.88;;;8.80;99.90;;;;;;4947714;29;20111;-77
2022/11/16 06:14:26;;;;;;;10.45;4.72;;;8.80;99.90;;;;;;4917119;29;20047;-77
2022/11/16 06:16:53;;;;;;;6.15;4.05;;;8.70;99.90;;;;;;4917495;29;20091;-78
2022/11/16 06:19:19;;;;;;;8.43;6.63;;;8.70;99.90;;;;;;4948894;29;20039;-77
2022/11/16 06:21:45;;;;;;;5.25;4.25;;;8.60;99.90;;;;;;4932973;29;20048;-77
2022/11/16 06:24:17;;;;;;;5.18;4.70;;;8.60;99.90;;;;;;4932872;29;20038;-77
2022/11/16 06:26:42;;;;;;;9.45;5.40;;;8.70;99.90;;;;;;4916960;29;20501;-78
2022/11/16 06:29:08;;;;;;;9.82;6.13;;;8.70;99.90;;;;;;4916854;29;20079;-77
2022/11/16 06:31:34;;;;;;;9.80;6.07;;;8.60;99.90;;;;;;4931524;29;20035;-77
2022/11/16 06:34:01;;;;;;;8.77;6.60;;;8.70;99.90;;;;;;4932786;29;20047;-77
2022/11/16 06:36:28;;;;;;;8.15;6.07;;;8.70;99.90;;;;;;4916521;29;20032;-77
2022/11/16 06:38:58;;;;;;;7.65;6.05;;;8.80;99.90;;;;;;4931869;29;20046;-77
2022/11/16 06:41:25;;;;;;;9.80;5.78;;;8.80;99.90;;;;;;4917375;29;20039;-77
2022/11/16 06:43:52;;;;;;;7.80;5.63;;;8.80;99.90;;;;;;4932579;29;20071;-77
2022/11/16 06:46:23;;;;;;;6.03;4.00;;;8.80;99.90;;;;;;4932366;29;20114;-78
2022/11/16 06:48:49;;;;;;;10.60;4.72;;;8.80;99.90;;;;;;4932628;29;20024;-78
2022/11/16 06:51:16;;;;;;;4.90;4.45;;;8.80;99.90;;;;;;4916656;29;20031;-77
2022/11/16 06:53:42;;;;;;;5.28;4.05;;;8.80;99.90;;;;;;4949126;29;20039;-77
2022/11/16 06:56:12;;;;;;;4.22;3.92;;;8.70;99.90;;;;;;4932338;29;20032;-77
2022/11/16 06:58:42;;;;;;;6.90;4.18;;;8.70;99.90;;;;;;4931803;29;20051;-77
2022/11/16 07:01:10;;;;;;;5.40;3.85;;;8.60;99.90;;;;;;4916497;29;20032;-77
2022/11/16 07:03:39;;;;;;;13.18;4.95;;;8.60;99.90;;;;;;4918903;29;20437;-78
2022/11/16 07:06:10;;;;;;;15.95;4.80;;;8.60;99.90;;;;;;4929483;29;20036;-78
2022/11/16 07:08:38;;;;;;;6.68;4.25;;;8.60;99.90;;;;;;4932205;29;20536;-78
2022/11/16 07:11:06;;;;;;;9.40;4.05;;;8.60;99.90;;;;;;4931842;29;20038;-77
2022/11/16 07:13:34;;;;;;;5.22;4.25;;;8.60;99.90;;;;;;4931241;29;20027;-77
2022/11/16 07:16:04;;;;;;;4.15;3.35;;;8.70;99.90;;;;;;4931434;29;20035;-77
2022/11/16 07:18:35;;;;;;;3.90;3.47;;;8.70;99.90;;;;;;4931823;29;20016;-77
2022/11/16 07:21:10;;;;;;;9.63;3.50;;;8.70;99.90;;;;;;4918804;29;20032;-77
2022/11/16 07:23:37;;;;;;;7.55;2.83;;;8.70;99.90;;;;;;4931722;29;20540;-78
2022/11/16 07:26:05;;;;;;;4.60;4.15;;;8.70;99.90;;;;;;4931549;29;20047;-78
2022/11/16 07:28:40;;;;;;;6.28;3.05;;;8.80;99.90;;;;;;4936709;29;20413;-77
2022/11/16 07:31:08;;;;;;;3.95;2.60;;;8.80;99.90;;;;;;4930334;29;20036;-77
2022/11/16 07:33:34;;;;;;;8.55;3.25;;;8.90;99.90;;;;;;4930509;29;20043;-77
2022/11/16 07:36:15;;;;;;;3.75;2.08;;;8.90;99.90;;;;;;4928982;29;20039;-78
2022/11/16 07:38:41;;;;;;;6.97;3.35;;;8.90;99.90;;;;;;4919584;29;20032;-78
2022/11/16 07:41:11;;;;;;;4.90;2.65;;;9.00;99.90;;;;;;4939972;29;20100;-77
2022/11/16 07:43:45;;;;;;;8.45;3.00;;;9.10;99.90;;;;;;4912762;29;20030;-77
2022/11/16 07:46:16;;;;;;;;;;;9.30;99.90;;;;;;4927205;29;20028;-78
2022/11/16 07:48:41;;;;;;;8.60;3.97;;;9.50;99.90;;;;;;4950258;29;20016;-78
2022/11/16 07:51:17;;;;;;;2.80;2.10;;;9.70;99.90;;;;;;4935634;29;20035;-78
2022/11/16 07:53:56;;;;;;;9.63;2.95;;;9.90;99.90;;;;;;4937902;29;20040;-78
2022/11/16 07:56:23;;;;;;;5.93;2.90;;;10.10;99.90;;;;;;4935981;29;20099;-78
2022/11/16 07:58:49;;;;;;;8.63;3.10;;;11.00;99.90;;;;;;4914899;29;20024;-77
2022/11/16 08:01:18;;;;;;;6.55;3.08;;;11.90;99.90;;;;;;4944600;29;20027;-78
2022/11/16 08:03:46;;;;;;;4.78;3.28;;;12.90;99.90;;;;;;4930722;29;20036;-76
2022/11/16 08:06:15;;;;;;;5.55;3.65;;;13.60;99.90;;;;;;4943807;29;20015;-77
2022/11/16 08:08:42;;;;;;;7.68;3.88;;;14.50;99.90;;;;;;4933595;29;20036;-78
2022/11/16 08:11:10;;;;;;;8.30;3.28;;;15.30;99.90;;;;;;4925343;29;20040;-76
2022/11/16 08:13:38;;;;;;;4.40;2.60;;;15.70;99.90;;;;;;4957249;29;20055;-77
2022/11/16 08:16:08;;;;;;;5.63;2.03;;;16.20;99.90;;;;;;4913487;29;20275;-78
2022/11/16 08:18:35;;;;;;;9.48;3.50;;;17.20;99.90;;;;;;4943229;29;20019;-77
2022/11/16 08:21:02;;;;;;;5.15;2.70;;;17.90;99.90;;;;;;4940001;29;20084;-77
2022/11/16 08:23:30;;;;;;;3.88;1.45;;;18.10;99.90;;;;;;4940281;29;20035;-78
2022/11/16 08:26:06;;;;;;;5.38;1.75;;;18.20;99.90;;;;;;4937000;29;20031;-77
2022/11/16 08:28:32;;;;;;;5.72;1.50;;;18.90;99.90;;;;;;4936360;29;20043;-76
2022/11/16 08:30:58;;;;;;;5.78;2.13;;;18.80;99.90;;;;;;4936905;29;20020;-77
2022/11/16 08:33:27;;;;;;;7.22;3.33;;;19.40;99.90;;;;;;4938274;29;20145;-77
2022/11/16 08:35:54;;;;;;;7.70;3.17;;;18.70;99.90;;;;;;4944662;29;20039;-77
2022/11/16 08:38:20;;;;;;;6.45;2.60;;;18.50;99.90;;;;;;4959973;29;20027;-76
2022/11/16 08:40:48;;;;;;;4.65;2.92;;;18.90;99.90;;;;;;4944879;29;20119;-76
2022/11/16 08:43:15;;;;;;;8.18;1.73;;;19.40;99.90;;;;;;4915122;29;20025;-77
2022/11/16 08:45:46;;;;;;;4.95;2.78;;;18.80;99.90;;;;;;4937835;29;20012;-77
2022/11/16 08:48:12;;;;;;;8.90;2.78;;;18.60;99.90;;;;;;4940484;29;20359;-76
2022/11/16 08:50:40;;;;;;;5.88;2.15;;;19.00;99.90;;;;;;4939125;29;20103;-77
2022/11/16 08:53:14;;;;;;;2.95;1.85;;;19.80;99.90;;;;;;4933395;29;20024;-77
2022/11/16 08:55:43;;;;;;;3.53;1.10;;;18.20;99.90;;;;;;4932504;29;20055;-77
2022/11/16 08:58:10;;;;;;;6.07;2.15;;;17.80;99.90;;;;;;4932722;29;20035;-77
2022/11/16 09:00:37;;;;;;;7.35;3.28;;;18.20;99.90;;;;;;4919581;29;20028;-77
2022/11/16 09:03:03;;;;;;;10.60;3.28;;;17.60;99.90;;;;;;4919242;29;20063;-77
2022/11/16 09:05:29;;;;;;;6.18;2.22;;;18.50;99.90;;;;;;4934451;29;20027;-77
2022/11/16 09:07:55;;;;;;;2.72;2.28;;;17.70;99.90;;;;;;4931920;29;20104;-77
2022/11/16 09:10:22;;;;;;;6.32;3.55;;;17.90;99.90;;;;;;4928530;29;20043;-78
2022/11/16 09:12:48;;;;;;;7.13;3.50;;;18.00;99.90;;;;;;4936203;29;20040;-77
2022/11/16 09:15:14;;;;;;;12.77;3.33;;;18.10;99.90;;;;;;4936734;29;20040;-77
2022/11/16 09:17:40;;;;;;;8.70;3.17;;;18.80;99.90;;;;;;4934847;29;20066;-77
2022/11/16 09:20:07;;;;;;;5.07;2.90;;;18.90;99.90;;;;;;4931315;29;20036;-77
2022/11/16 09:22:33;;;;;;;8.80;5.05;;;18.50;99.90;;;;;;4936249;29;20029;-78
2022/11/16 09:24:59;;;;;;;10.15;3.70;;;18.80;99.90;;;;;;4934950;29;20004;-78
2022/11/16 09:27:25;;;;;;;4.18;3.30;;;19.90;99.90;;;;;;4937484;29;20059;-78
2022/11/16 09:29:50;;;;;;;4.75;3.45;;;19.40;99.90;;;;;;4937545;29;20043;-77
2022/11/16 09:32:16;;;;;;;7.60;3.45;;;19.30;99.90;;;;;;4936248;29;20092;-77
2022/11/16 09:34:42;;;;;;;6.90;3.33;;;19.30;99.90;;;;;;4936430;29;20036;-77
2022/11/16 09:37:08;;;;;;;6.90;1.95;;;18.50;99.90;;;;;;4935857;29;20063;-78
2022/11/16 09:39:34;;;;;;;9.35;3.25;;;18.60;99.90;;;;;;4949440;29;20039;-77
2022/11/16 09:42:09;;;;;;;4.15;2.58;;;19.20;99.90;;;;;;4938435;29;20118;-77
2022/11/16 09:44:57;;;;;;;9.38;2.90;;;18.90;99.90;;;;;;4916720;29;20501;-77
2022/11/16 09:47:30;;;;;;;2.85;1.85;;;19.20;99.90;;;;;;4947103;29;20086;-76
2022/11/16 09:49:59;;;;;;;3.97;2.08;;;19.10;99.90;;;;;;4932647;29;20054;-76
2022/11/16 09:52:25;;;;;;;6.35;3.08;;;20.70;99.90;;;;;;4950897;29;20066;-76
2022/11/16 09:54:53;;;;;;;2.20;1.30;;;19.90;99.90;;;;;;4934513;29;20095;-76
2022/11/16 09:57:28;;;;;;;7.07;1.45;;;19.20;99.90;;;;;;4949739;29;20043;-76
2022/11/16 09:59:59;;;;;;;4.43;1.70;;;18.70;99.90;;;;;;4949316;29;20816;-76
2022/11/16 10:02:46;;;;;;;5.75;1.30;;;18.60;99.90;;;;;;4943410;29;20116;-76
2022/11/16 10:05:26;;;;;;;2.70;1.27;;;19.70;99.90;;;;;;4940268;29;20058;-75
2022/11/16 10:08:24;;;;;;;6.65;1.40;;;18.70;99.90;;;;;;4949709;29;20035;-75
2022/11/16 10:11:16;;;;;;;2.13;1.20;;;18.10;99.90;;;;;;4916973;29;21487;-77
2022/11/16 10:14:12;;;;;;;2.92;2.15;;;19.20;99.90;;;;;;4949133;29;20032;-75
2022/11/16 10:16:48;;;;;;;4.47;1.63;;;18.20;99.90;;;;;;4939136;29;20055;-76
2022/11/16 10:19:23;;;;;;;3.70;1.48;;;18.70;99.90;;;;;;4949448;29;20039;-75
2022/11/16 10:22:11;;;;;;;1.90;1.80;;;18.70;99.90;;;;;;4944758;29;20031;-76
2022/11/16 10:24:56;;;;;;;8.40;2.47;;;18.20;99.90;;;;;;4920289;29;20040;-75
2022/11/16 10:27:45;;;;;;;4.15;2.08;;;18.10;99.90;;;;;;4946829;29;20078;-75
2022/11/16 10:30:15;;;;;;;2.97;2.03;;;19.00;99.90;;;;;;4921066;29;20497;-75
2022/11/16 10:33:18;;;;;;;12.38;2.15;;;18.20;99.90;;;;;;4949291;29;20036;-75
2022/11/16 10:35:52;;;;;;;2.15;1.20;;;18.30;99.90;;;;;;4828738;29;20026;-75
2022/11/16 10:38:22;;;;;;;3.50;1.75;;;18.80;99.90;;;;;;4913283;29;20053;-76
2022/11/16 10:40:56;;;;;;;5.15;1.48;;;16.90;99.90;;;;;;4947882;29;20099;-76
2022/11/16 10:43:27;;;;;;;3.88;2.20;;;15.20;99.90;;;;;;4929674;29;20063;-75
2022/11/16 10:46:22;;;;;;;2.70;1.52;;;14.50;99.90;;;;;;4949312;29;20030;-75
2022/11/16 10:49:10;;;;;;;7.80;2.63;;;14.80;99.90;;;;;;4928813;29;20031;-77
2022/11/16 10:51:36;;;;;;;8.65;1.88;;;15.50;99.90;;;;;;4946152;29;20087;-75
2022/11/16 10:54:13;;;;;;;0.80;0.70;;;15.80;99.90;;;;;;4927587;29;20032;-77
2022/11/16 10:56:44;;;;;;;2.25;1.45;;;15.20;99.90;;;;;;4947094;29;20082;-78
2022/11/16 10:59:16;;;;;;;3.80;1.35;;;14.60;99.90;;;;;;4946860;29;20036;-78
2022/11/16 11:01:52;;;;;;;5.53;1.38;;;14.30;99.90;;;;;;4936630;29;20043;-77
2022/11/16 11:04:23;;;;;;;1.80;0.93;;;13.70;99.90;;;;;;4942565;29;20043;-78
2022/11/16 11:07:17;;;;;;;5.88;2.85;;;13.30;99.90;;;;;;4948775;29;20031;-77
2022/11/16 11:09:51;;;;;;;8.02;1.85;;;13.10;99.90;;;;;;4916041;29;20038;-78
2022/11/16 11:12:38;;;;;;;3.38;1.60;;;13.00;99.90;;;;;;4948762;29;20044;-78
2022/11/16 11:15:10;;;;;;;1.75;1.63;;;12.90;99.90;;;;;;4938762;29;20036;-78
2022/11/16 11:17:46;;;;;;;4.70;1.67;;;12.60;99.90;;;;;;4925545;29;20139;-78
2022/11/16 11:20:15;;;;;;;4.28;1.60;;;12.50;99.90;;;;;;4936523;29;20039;-77
2022/11/16 11:22:55;;;;;;;4.40;1.02;;;12.60;99.90;;;;;;4947860;29;20034;-78
2022/11/16 11:25:20;;;;;;;5.28;1.77;;;12.40;99.90;;;;;;4948059;29;20047;-77
2022/11/16 11:27:46;;;;;;;7.20;2.38;;;12.40;99.90;;;;;;4948296;29;20059;-77
2022/11/16 11:30:19;;;;;;;3.72;1.75;;;12.50;99.90;;;;;;4948354;29;20079;-77
2022/11/16 11:32:46;;;;;;;7.15;3.47;;;12.60;99.90;;;;;;4946000;29;20499;-76
2022/11/16 11:35:28;;;;;;;4.05;1.02;;;12.60;99.90;;;;;;4922805;29;20507;-79
2022/11/16 11:37:58;;;;;;;4.03;2.83;;;12.60;99.90;;;;;;4946919;29;20042;-77
2022/11/16 11:40:27;;;;;;;8.50;2.03;;;12.60;99.90;;;;;;4945699;29;20036;-79
2022/11/16 11:43:04;;;;;;;4.20;0.98;;;12.70;99.90;;;;;;4948227;29;20031;-77
2022/11/16 11:45:43;;;;;;;3.53;1.30;;;12.80;99.90;;;;;;4946550;29;20031;-77
2022/11/16 11:48:37;;;;;;;2.55;1.10;;;13.00;99.90;;;;;;4946348;29;20031;-77
2022/11/16 11:51:24;;;;;;;5.55;1.65;;;13.00;99.90;;;;;;4948435;29;20366;-77
2022/11/16 11:53:58;;;;;;;2.50;1.83;;;13.20;99.90;;;;;;4948602;29;20452;-77
2022/11/16 11:56:26;;;;;;;8.38;2.10;;;13.30;99.90;;;;;;4948353;29;20042;-79
2022/11/16 11:58:53;;;;;;;2.20;1.52;;;13.20;99.90;;;;;;4931648;29;20064;-79
2022/11/16 12:01:41;;;;;;;5.45;2.40;;;13.40;99.90;;;;;;4948403;29;20028;-79
2022/11/16 12:04:24;;;;;;;4.50;2.17;;;13.40;99.90;;;;;;4948193;29;20059;-79
2022/11/16 12:07:21;;;;;;;3.72;1.45;;;13.20;99.90;;;;;;4929384;29;20027;-78
2022/11/16 12:10:20;;;;;;;7.18;4.22;;;13.00;99.90;;;;;;4921581;29;20036;-79
2022/11/16 12:13:00;;;;;;;15.98;6.50;;;12.90;99.90;;;;;;4948414;29;20099;-78
2022/11/16 12:15:39;;;;;;;7.22;4.93;;;13.10;99.90;;;;;;4931381;29;20028;-78
2022/11/16 12:18:41;;;;;;;3.95;2.28;;;13.60;99.90;;;;;;4948612;29;20178;-78
2022/11/16 12:21:14;;;;;;;5.32;1.83;;;14.10;99.90;;;;;;4919449;29;20071;-78
2022/11/16 12:24:04;;;;;;;2.08;1.10;;;13.90;99.90;;;;;;4948156;29;20393;-78
2022/11/16 12:26:52;;;;;;;7.43;0.80;;;13.90;99.90;;;;;;4948525;29;20055;-77
2022/11/16 12:29:45;;;;;;;6.45;2.00;;;13.90;99.90;;;;;;4930155;29;20035;-78
2022/11/16 12:32:38;;;;;;;2.22;2.00;;;14.20;99.90;;;;;;4948152;29;20031;-77
2022/11/16 12:35:16;;;;;;;1.63;0.95;;;14.40;99.90;;;;;;4948323;29;20036;-78
2022/11/16 12:37:56;;;;;;;26.52;2.28;;;14.30;99.90;;;;;;4947676;29;20035;-78
2022/11/16 12:40:34;;;;;;;5.32;2.53;;;14.20;99.90;;;;;;4930006;29;20063;-78
2022/11/16 12:43:20;;;;;;;2.17;1.17;;;14.30;99.90;;;;;;4948114;29;20031;-78
2022/11/16 12:45:57;;;;;;;4.28;1.08;;;14.20;99.90;;;;;;4947693;29;20098;-77
2022/11/16 12:48:38;;;;;;;1.17;1.05;;;14.30;99.90;;;;;;4948380;29;20031;-78
2022/11/16 12:51:36;;;;;;;3.13;2.30;;;14.50;99.90;;;;;;4948053;29;20138;-77
2022/11/16 12:54:26;;;;;;;2.45;1.17;;;14.70;99.90;;;;;;4947741;29;20040;-78
2022/11/16 12:57:19;;;;;;;6.97;2.35;;;14.50;99.90;;;;;;4947159;29;20042;-78
2022/11/16 13:00:03;;;;;;;5.32;2.42;;;13.90;99.90;;;;;;4930784;29;20560;-78
2022/11/16 13:02:32;;;;;;;5.70;2.08;;;13.80;99.90;;;;;;4947953;29;20074;-78
2022/11/16 13:05:16;;;;;;;5.28;3.30;;;13.70;99.90;;;;;;4947989;29;20070;-78
2022/11/16 13:07:51;;;;;;;5.93;3.10;;;13.80;99.90;;;;;;4947607;29;20032;-78
2022/11/16 13:10:23;;;;;;;5.72;3.90;;;13.50;99.90;;;;;;4930719;29;20115;-78
2022/11/16 13:12:54;;;;;;;11.40;6.78;;;13.40;99.90;;;;;;4948005;29;20038;-78
2022/11/16 13:15:31;;;;;;;7.82;4.50;;;13.50;99.90;;;;;;4947731;29;20034;-76
2022/11/16 13:18:02;;;;;;;6.63;3.50;;;13.60;99.90;;;;;;4946476;29;20465;-77
2022/11/16 13:20:46;;;;;;;7.80;2.30;;;13.50;99.90;;;;;;4948386;29;20078;-76
2022/11/16 13:23:24;;;;;;;2.53;1.23;;;13.60;99.90;;;;;;4951029;29;20024;-76
2022/11/16 13:26:14;;;;;;;6.35;1.50;;;13.60;99.90;;;;;;4934161;29;20035;-76
2022/11/16 13:28:51;;;;;;;6.32;2.42;;;13.70;99.90;;;;;;4951290;29;20035;-76
2022/11/16 13:31:27;;;;;;;12.88;2.35;;;13.70;99.90;;;;;;4934133;29;20038;-77
2022/11/16 13:34:00;;;;;;;3.03;1.88;;;13.50;99.90;;;;;;4951082;29;20445;-76
2022/11/16 13:36:53;;;;;;;6.57;1.45;;;13.50;99.90;;;;;;4950548;29;20040;-76
2022/11/16 13:39:57;;;;;;;2.08;1.17;;;13.40;99.90;;;;;;4933630;29;20075;-76
2022/11/16 13:42:24;;;;;;;4.97;2.55;;;13.20;99.90;;;;;;4933812;29;20035;-76
2022/11/16 13:44:51;;;;;;;15.82;2.20;;;13.00;99.90;;;;;;4950811;29;20032;-77
2022/11/16 13:47:26;;;;;;;2.60;1.60;;;12.90;99.90;;;;;;4933784;29;20450;-76
2022/11/16 13:50:00;;;;;;;2.35;1.48;;;12.90;99.90;;;;;;4950651;29;20525;-77
2022/11/16 13:52:44;;;;;;;6.45;1.75;;;12.90;99.90;;;;;;4933373;29;20032;-77
2022/11/16 13:55:34;;;;;;;5.45;1.02;;;12.90;99.90;;;;;;4914428;29;20470;-76
2022/11/16 13:58:04;;;;;;;2.67;1.60;;;12.90;99.90;;;;;;4914300;29;20049;-77